createdAt,value
2018-05-13T00:00:42.892Z,78.4
2018-05-13T00:01:44.758Z,77.8
2018-05-13T00:02:46.801Z,77.8
2018-05-13T00:03:48.693Z,77.6
2018-05-13T00:04:50.855Z,77.9
2018-05-13T00:05:52.631Z,78.2
2018-05-13T00:06:54.246Z,78.7
2018-05-13T00:07:56.564Z,78.2
2018-05-13T00:08:58.193Z,78.9
2018-05-13T00:09:59.811Z,78.7
2018-05-13T00:11:01.610Z,78.9
2018-05-13T00:12:03.219Z,78.3
2018-05-13T00:13:04.838Z,78.3
2018-05-13T00:14:06.452Z,78.8
2018-05-13T00:15:09.189Z,79.4
2018-05-13T00:16:12.308Z,79.2
2018-05-13T00:17:14.837Z,79.1
2018-05-13T00:18:16.907Z,79.2
2018-05-13T00:19:19.214Z,79.1
2018-05-13T00:20:21.007Z,79.5
2018-05-13T00:21:22.808Z,79.7
2018-05-13T00:22:25.229Z,79.7
2018-05-13T00:23:27.585Z,79.4
2018-05-13T00:24:29.892Z,79.6
2018-05-13T00:25:32.259Z,79.5
2018-05-13T00:26:34.687Z,79.5
2018-05-13T00:27:38.367Z,79.5
2018-05-13T00:28:41.343Z,79.6
2018-05-13T00:29:44.085Z,79.6
2018-05-13T00:30:47.259Z,79.9
2018-05-13T00:31:50.191Z,79.7
2018-05-13T00:32:51.777Z,79.6
2018-05-13T00:33:53.394Z,79.9
2018-05-13T00:34:55.008Z,79.9
2018-05-13T00:35:57.710Z,79.7
2018-05-13T00:37:01.076Z,79.4
2018-05-13T00:38:03.698Z,80.0
2018-05-13T00:39:06.175Z,79.4
2018-05-13T00:40:07.793Z,80.0
2018-05-13T00:41:09.412Z,79.5
2018-05-13T00:42:11.024Z,79.7
2018-05-13T00:43:12.641Z,80.0
2018-05-13T00:44:14.260Z,79.5
2018-05-13T00:45:15.912Z,79.1
2018-05-13T00:46:17.490Z,79.1
2018-05-13T00:47:19.104Z,79.6
2018-05-13T00:48:20.716Z,79.5
2018-05-13T00:49:22.331Z,79.7
2018-05-13T00:50:23.952Z,79.6
2018-05-13T00:51:25.566Z,79.4
2018-05-13T00:52:27.186Z,79.4
2018-05-13T00:53:28.798Z,79.8
2018-05-13T00:54:30.417Z,79.6
2018-05-13T00:55:32.027Z,79.8
2018-05-13T00:56:33.641Z,79.4
2018-05-13T00:57:35.259Z,79.5
2018-05-13T00:58:36.879Z,79.3
2018-05-13T00:59:38.494Z,79.9
2018-05-13T01:00:40.114Z,79.6
2018-05-13T01:01:41.720Z,79.7
2018-05-13T01:02:43.341Z,79.5
2018-05-13T01:03:44.949Z,79.5
2018-05-13T01:04:46.571Z,79.2
2018-05-13T01:05:48.188Z,79.1
2018-05-13T01:06:49.807Z,79.2
2018-05-13T01:07:51.415Z,79.5
2018-05-13T01:08:53.033Z,80.7
2018-05-13T01:09:54.648Z,80.7
2018-05-13T01:10:56.263Z,80.3
2018-05-13T01:11:57.878Z,80.5
2018-05-13T01:12:59.497Z,80.2
2018-05-13T01:14:01.109Z,80.7
2018-05-13T01:15:02.726Z,80.9
2018-05-13T01:16:04.336Z,80.8
2018-05-13T01:17:05.951Z,80.4
2018-05-13T01:18:07.561Z,81.1
2018-05-13T01:19:09.178Z,80.8
2018-05-13T01:20:10.791Z,80.9
2018-05-13T01:21:12.409Z,80.8
2018-05-13T01:22:14.022Z,80.6
2018-05-13T01:23:15.630Z,80.8
2018-05-13T01:24:17.242Z,81.1
2018-05-13T01:25:18.861Z,81.1
2018-05-13T01:26:20.472Z,81.0
2018-05-13T01:27:22.084Z,80.7
2018-05-13T01:28:23.708Z,81.1
2018-05-13T01:29:25.361Z,80.7
2018-05-13T01:30:26.934Z,80.8
2018-05-13T01:31:28.546Z,80.6
2018-05-13T01:32:30.159Z,80.9
2018-05-13T01:33:31.776Z,80.7
2018-05-13T01:34:33.396Z,80.4
2018-05-13T01:35:35.009Z,80.3
2018-05-13T01:36:36.618Z,80.4
2018-05-13T01:37:38.235Z,80.9
2018-05-13T01:38:39.843Z,80.8
2018-05-13T01:39:41.464Z,81.0
2018-05-13T01:40:43.081Z,80.7
2018-05-13T01:41:44.696Z,80.6
2018-05-13T01:42:46.314Z,80.7
2018-05-13T01:43:47.927Z,80.8
2018-05-13T01:44:49.538Z,81.3
2018-05-13T01:45:51.148Z,80.9
2018-05-13T01:46:52.765Z,81.6
2018-05-13T01:47:54.412Z,81.5
2018-05-13T01:48:55.989Z,81.7
2018-05-13T01:49:57.608Z,81.3
2018-05-13T01:50:59.216Z,81.5
2018-05-13T01:52:00.832Z,81.3
2018-05-13T01:53:02.447Z,81.9
2018-05-13T01:54:07.012Z,82.2
2018-05-13T01:55:08.630Z,82.0
2018-05-13T01:56:10.243Z,81.6
2018-05-13T01:57:11.859Z,81.7
2018-05-13T01:58:13.470Z,82.2
2018-05-13T01:59:15.081Z,81.9
2018-05-13T02:00:16.693Z,81.6
2018-05-13T02:01:18.308Z,81.6
2018-05-13T02:02:19.922Z,82.2
2018-05-13T02:03:21.535Z,82.2
2018-05-13T02:04:23.155Z,81.7
2018-05-13T02:05:24.767Z,81.3
2018-05-13T02:06:26.380Z,82.2
2018-05-13T02:07:27.993Z,81.6
2018-05-13T02:08:29.610Z,82.5
2018-05-13T02:09:31.221Z,82.0
2018-05-13T02:10:32.838Z,82.3
2018-05-13T02:11:34.453Z,82.1
2018-05-13T02:12:36.062Z,82.6
2018-05-13T02:13:37.678Z,83.0
2018-05-13T02:14:39.287Z,82.8
2018-05-13T02:15:40.906Z,82.1
2018-05-13T02:16:42.518Z,82.2
2018-05-13T02:17:44.138Z,82.1
2018-05-13T02:18:45.756Z,83.1
2018-05-13T02:19:47.367Z,82.2
2018-05-13T02:20:48.977Z,82.0
2018-05-13T02:21:50.594Z,82.3
2018-05-13T02:22:52.203Z,81.9
2018-05-13T02:23:53.816Z,81.7
2018-05-13T02:24:55.438Z,81.9
2018-05-13T02:25:57.051Z,81.6
2018-05-13T02:26:58.667Z,82.1
2018-05-13T02:28:00.283Z,82.2
2018-05-13T02:29:01.891Z,81.9
2018-05-13T02:30:03.507Z,82.2
2018-05-13T02:31:05.127Z,82.0
2018-05-13T02:32:06.737Z,81.6
2018-05-13T02:33:08.348Z,81.7
2018-05-13T02:34:09.964Z,81.5
2018-05-13T02:35:11.575Z,81.6
2018-05-13T02:36:13.190Z,81.4
2018-05-13T02:37:14.819Z,81.2
2018-05-13T02:38:16.412Z,81.3
2018-05-13T02:39:18.031Z,81.3
2018-05-13T02:40:19.643Z,82.1
2018-05-13T02:41:21.255Z,81.6
2018-05-13T02:42:22.871Z,81.6
2018-05-13T02:43:24.480Z,81.7
2018-05-13T02:44:26.090Z,81.4
2018-05-13T02:45:27.706Z,81.6
2018-05-13T02:46:29.325Z,81.5
2018-05-13T02:47:30.936Z,82.2
2018-05-13T02:48:32.549Z,81.4
2018-05-13T02:49:34.163Z,81.7
2018-05-13T02:50:35.780Z,83.1
2018-05-13T02:51:37.391Z,83.4
2018-05-13T02:52:39.004Z,84.3
2018-05-13T02:53:40.624Z,85.8
2018-05-13T02:54:42.241Z,86.0
2018-05-13T02:55:43.850Z,86.5
2018-05-13T02:56:45.461Z,87.4
2018-05-13T02:57:47.077Z,87.9
2018-05-13T02:58:48.693Z,87.5
2018-05-13T02:59:50.306Z,87.6
2018-05-13T03:00:51.927Z,87.7
2018-05-13T03:01:53.538Z,87.5
2018-05-13T03:02:55.151Z,87.9
2018-05-13T03:03:56.766Z,87.3
2018-05-13T03:04:58.384Z,87.3
2018-05-13T03:05:59.991Z,87.5
2018-05-13T03:07:01.607Z,87.5
2018-05-13T03:08:03.221Z,87.1
2018-05-13T03:09:04.838Z,86.6
2018-05-13T03:10:06.446Z,86.8
2018-05-13T03:11:08.056Z,86.3
2018-05-13T03:12:09.672Z,87.0
2018-05-13T03:13:11.290Z,87.0
2018-05-13T03:14:12.899Z,87.2
2018-05-13T03:15:14.518Z,86.8
2018-05-13T03:16:16.146Z,86.7
2018-05-13T03:17:17.757Z,88.3
2018-05-13T03:18:19.368Z,87.2
2018-05-13T03:19:20.987Z,89.2
2018-05-13T03:20:22.600Z,88.8
2018-05-13T03:21:24.219Z,88.9
2018-05-13T03:22:25.830Z,88.7
2018-05-13T03:23:27.446Z,88.8
2018-05-13T03:24:29.056Z,89.7
2018-05-13T03:25:30.674Z,90.6
2018-05-13T03:26:32.284Z,91.0
2018-05-13T03:27:33.896Z,91.7
2018-05-13T03:28:35.510Z,91.7
2018-05-13T03:29:37.122Z,91.7
2018-05-13T03:30:38.740Z,91.6
2018-05-13T03:31:40.353Z,91.7
2018-05-13T03:32:41.966Z,92.9
2018-05-13T03:33:43.584Z,93.9
2018-05-13T03:34:45.194Z,94.8
2018-05-13T03:35:46.807Z,95.8
2018-05-13T03:36:48.427Z,96.1
2018-05-13T03:37:50.044Z,96.3
2018-05-13T03:38:51.658Z,95.2
2018-05-13T03:39:53.273Z,95.7
2018-05-13T03:40:54.890Z,95.9
2018-05-13T03:41:56.501Z,96.0
2018-05-13T03:42:58.125Z,96.0
2018-05-13T03:43:59.820Z,97.2
2018-05-13T03:45:01.446Z,97.6
2018-05-13T03:46:02.973Z,98.2
2018-05-13T03:47:04.583Z,98.8
2018-05-13T03:48:06.200Z,98.1
2018-05-13T03:49:07.815Z,98.0
2018-05-13T03:50:09.426Z,98.3
2018-05-13T03:51:11.047Z,97.9
2018-05-13T03:52:12.667Z,98.3
2018-05-13T03:53:14.280Z,98.9
2018-05-13T03:54:15.896Z,99.9
2018-05-13T03:55:17.509Z,100.0
2018-05-13T03:56:19.132Z,100.0
2018-05-13T03:57:20.742Z,100.0
2018-05-13T03:58:22.363Z,100.0
2018-05-13T03:59:23.978Z,100.0
2018-05-13T04:00:25.597Z,100.0
2018-05-13T04:01:27.212Z,100.0
2018-05-13T04:02:28.831Z,100.0
2018-05-13T04:03:30.446Z,100.0
2018-05-13T04:04:32.069Z,100.0
2018-05-13T04:05:33.689Z,100.0
2018-05-13T04:06:35.313Z,100.0
2018-05-13T04:07:36.931Z,100.0
2018-05-13T04:08:38.547Z,100.0
2018-05-13T04:09:40.168Z,100.0
2018-05-13T04:10:41.787Z,100.0
2018-05-13T04:11:43.405Z,100.0
2018-05-13T04:12:45.026Z,100.0
2018-05-13T04:13:46.649Z,100.0
2018-05-13T04:14:48.264Z,100.0
2018-05-13T04:15:49.888Z,100.0
2018-05-13T04:16:51.507Z,100.0
2018-05-13T04:17:53.123Z,100.0
2018-05-13T04:18:54.744Z,100.0
2018-05-13T04:19:56.369Z,100.0
2018-05-13T04:20:57.994Z,100.0
2018-05-13T04:21:59.608Z,100.0
2018-05-13T04:23:01.233Z,100.0
2018-05-13T04:24:02.846Z,100.0
2018-05-13T04:25:04.473Z,100.0
2018-05-13T04:26:06.093Z,100.0
2018-05-13T04:27:07.711Z,100.0
2018-05-13T04:28:09.338Z,100.0
2018-05-13T04:29:10.952Z,100.0
2018-05-13T04:30:12.576Z,100.0
2018-05-13T04:31:14.198Z,100.0
2018-05-13T04:32:15.821Z,100.0
2018-05-13T04:33:17.446Z,100.0
2018-05-13T04:34:19.065Z,100.0
2018-05-13T04:35:20.693Z,100.0
2018-05-13T04:36:22.305Z,100.0
2018-05-13T04:37:23.927Z,100.0
2018-05-13T04:38:25.542Z,100.0
2018-05-13T04:39:27.165Z,100.0
2018-05-13T04:40:28.784Z,100.0
2018-05-13T04:41:30.403Z,100.0
2018-05-13T04:42:32.025Z,100.0
2018-05-13T04:43:33.644Z,100.0
2018-05-13T04:44:35.263Z,100.0
2018-05-13T04:45:36.887Z,100.0
2018-05-13T04:46:38.506Z,100.0
2018-05-13T04:47:40.126Z,100.0
2018-05-13T04:48:41.756Z,100.0
2018-05-13T04:49:43.371Z,100.0
2018-05-13T04:50:44.998Z,100.0
2018-05-13T04:51:46.609Z,100.0
2018-05-13T04:52:48.233Z,100.0
2018-05-13T04:53:49.852Z,100.0
2018-05-13T04:54:51.479Z,100.0
2018-05-13T04:55:53.106Z,100.0
2018-05-13T04:56:54.722Z,100.0
2018-05-13T04:57:56.343Z,100.0
2018-05-13T04:58:57.963Z,100.0
2018-05-13T04:59:59.583Z,100.0
2018-05-13T05:01:01.209Z,100.0
2018-05-13T05:02:02.826Z,100.0
2018-05-13T05:03:04.455Z,100.0
2018-05-13T05:04:06.075Z,100.0
2018-05-13T05:05:07.699Z,100.0
2018-05-13T05:06:09.321Z,100.0
2018-05-13T05:07:10.943Z,100.0
2018-05-13T05:08:12.569Z,100.0
2018-05-13T05:09:14.190Z,100.0
2018-05-13T05:10:15.815Z,100.0
2018-05-13T05:11:17.434Z,100.0
2018-05-13T05:12:19.065Z,100.0
2018-05-13T05:13:20.676Z,100.0
2018-05-13T05:14:22.295Z,100.0
2018-05-13T05:15:23.915Z,100.0
2018-05-13T05:16:25.540Z,100.0
2018-05-13T05:17:27.162Z,100.0
2018-05-13T05:18:28.790Z,100.0
2018-05-13T05:19:30.413Z,100.0
2018-05-13T05:20:32.031Z,100.0
2018-05-13T05:21:33.650Z,100.0
2018-05-13T05:22:35.275Z,100.0
2018-05-13T05:23:36.894Z,100.0
2018-05-13T05:24:38.522Z,100.0
2018-05-13T05:25:40.146Z,100.0
2018-05-13T05:26:41.766Z,100.0
2018-05-13T05:27:43.386Z,100.0
2018-05-13T05:28:45.005Z,100.0
2018-05-13T05:29:46.637Z,100.0
2018-05-13T05:30:48.256Z,100.0
2018-05-13T05:31:49.878Z,100.0
2018-05-13T05:32:51.503Z,100.0
2018-05-13T05:33:53.125Z,100.0
2018-05-13T05:34:54.749Z,100.0
2018-05-13T05:35:56.374Z,100.0
2018-05-13T05:36:57.997Z,100.0
2018-05-13T05:37:59.616Z,100.0
2018-05-13T05:39:01.243Z,100.0
2018-05-13T05:40:02.871Z,100.0
2018-05-13T05:41:04.486Z,100.0
2018-05-13T05:42:06.106Z,100.0
2018-05-13T05:43:07.731Z,100.0
2018-05-13T05:44:09.348Z,100.0
2018-05-13T05:45:10.967Z,100.0
2018-05-13T05:46:12.593Z,100.0
2018-05-13T05:47:14.224Z,100.0
2018-05-13T05:48:16.127Z,100.0
2018-05-13T05:49:17.687Z,100.0
2018-05-13T05:50:19.309Z,100.0
2018-05-13T05:51:20.928Z,100.0
2018-05-13T05:52:22.556Z,100.0
2018-05-13T05:53:24.238Z,100.0
2018-05-13T05:54:25.877Z,100.0
2018-05-13T05:55:27.501Z,100.0
2018-05-13T05:56:29.125Z,100.0
2018-05-13T05:57:30.752Z,100.0
2018-05-13T05:58:32.374Z,100.0
2018-05-13T05:59:33.989Z,100.0
2018-05-13T06:00:35.618Z,100.0
2018-05-13T06:01:37.235Z,100.0
2018-05-13T06:02:38.863Z,100.0
2018-05-13T06:03:40.479Z,100.0
2018-05-13T06:04:42.102Z,100.0
2018-05-13T06:05:43.727Z,100.0
2018-05-13T06:06:45.346Z,100.0
2018-05-13T06:07:46.975Z,100.0
2018-05-13T06:08:48.598Z,100.0
2018-05-13T06:09:50.217Z,100.0
2018-05-13T06:10:51.848Z,100.0
2018-05-13T06:11:53.459Z,98.8
2018-05-13T06:12:55.083Z,96.4
2018-05-13T06:13:56.710Z,95.9
2018-05-13T06:14:58.331Z,96.0
2018-05-13T06:15:59.960Z,96.3
2018-05-13T06:17:01.572Z,98.1
2018-05-13T06:18:03.202Z,97.8
2018-05-13T06:19:04.821Z,97.3
2018-05-13T06:20:06.482Z,95.6
2018-05-13T06:21:08.111Z,94.7
2018-05-13T06:22:09.747Z,92.1
2018-05-13T06:23:11.485Z,92.4
2018-05-13T06:24:13.108Z,92.1
2018-05-13T06:25:14.861Z,91.0
2018-05-13T06:26:16.376Z,93.3
2018-05-13T06:27:18.013Z,91.7
2018-05-13T06:28:19.643Z,91.2
2018-05-13T06:29:21.274Z,86.5
2018-05-13T06:30:22.902Z,85.7
2018-05-13T06:31:24.523Z,85.9
2018-05-13T06:32:26.149Z,84.8
2018-05-13T06:33:27.772Z,84.6
2018-05-13T06:34:29.399Z,84.4
2018-05-13T06:35:31.027Z,81.4
2018-05-13T06:36:32.677Z,80.4
2018-05-13T06:37:34.308Z,77.7
2018-05-13T06:38:35.942Z,72.7
2018-05-13T06:39:37.606Z,72.3
2018-05-13T06:40:39.209Z,72.5
2018-05-13T06:41:40.839Z,70.1
2018-05-13T06:42:42.469Z,71.1
2018-05-13T06:43:48.396Z,69.5
2018-05-13T06:44:49.620Z,69.5
2018-05-13T06:45:51.253Z,69.0
2018-05-13T06:46:52.880Z,69.2
2018-05-13T06:47:54.506Z,69.0
2018-05-13T06:48:56.125Z,70.8
2018-05-13T06:49:57.757Z,70.6
2018-05-13T06:50:59.412Z,68.0
2018-05-13T06:52:01.021Z,67.4
2018-05-13T06:53:02.647Z,66.5
2018-05-13T06:54:04.276Z,66.9
2018-05-13T06:55:06.500Z,69.4
2018-05-13T06:56:08.126Z,69.2
2018-05-13T06:57:09.901Z,69.0
2018-05-13T06:58:11.533Z,70.5
2018-05-13T06:59:13.159Z,69.2
2018-05-13T07:00:14.811Z,68.0
2018-05-13T07:01:16.458Z,66.2
2018-05-13T07:02:18.085Z,63.1
2018-05-13T07:03:19.729Z,62.8
2018-05-13T07:04:21.366Z,62.9
2018-05-13T07:05:23.012Z,62.2
2018-05-13T07:06:24.707Z,63.9
2018-05-13T07:07:26.331Z,62.9
2018-05-13T07:08:27.994Z,63.9
2018-05-13T07:09:29.617Z,64.7
2018-05-13T07:10:31.251Z,64.7
2018-05-13T07:11:32.892Z,64.4
2018-05-13T07:12:34.543Z,60.0
2018-05-13T07:13:36.165Z,62.5
2018-05-13T07:14:37.800Z,61.4
2018-05-13T07:15:39.427Z,61.2
2018-05-13T07:16:41.054Z,61.7
2018-05-13T07:17:42.689Z,62.2
2018-05-13T07:18:44.315Z,63.5
2018-05-13T07:19:45.947Z,64.6
2018-05-13T07:20:47.577Z,65.1
2018-05-13T07:21:49.200Z,66.0
2018-05-13T07:22:50.826Z,66.0
2018-05-13T07:23:52.448Z,66.1
2018-05-13T07:24:54.073Z,66.2
2018-05-13T07:25:55.708Z,66.4
2018-05-13T07:26:57.340Z,66.0
2018-05-13T07:27:58.971Z,65.3
2018-05-13T07:29:00.600Z,65.2
2018-05-13T07:30:02.250Z,63.8
2018-05-13T07:31:03.872Z,62.3
2018-05-13T07:32:05.504Z,59.2
2018-05-13T07:33:07.135Z,57.5
2018-05-13T07:34:08.759Z,58.5
2018-05-13T07:35:10.392Z,56.4
2018-05-13T07:36:12.017Z,54.6
2018-05-13T07:37:13.648Z,54.3
2018-05-13T07:38:15.275Z,54.0
2018-05-13T07:39:16.915Z,54.1
2018-05-13T07:40:18.539Z,54.5
2018-05-13T07:41:20.170Z,55.9
2018-05-13T07:42:21.797Z,55.9
2018-05-13T07:43:23.451Z,56.6
2018-05-13T07:44:25.069Z,56.7
2018-05-13T07:45:26.691Z,56.7
2018-05-13T07:46:28.322Z,56.1
2018-05-13T07:47:29.949Z,56.3
2018-05-13T07:48:31.586Z,57.4
2018-05-13T07:49:33.274Z,58.7
2018-05-13T07:50:34.846Z,56.7
2018-05-13T07:51:36.477Z,58.0
2018-05-13T07:52:38.114Z,57.2
2018-05-13T07:53:39.748Z,58.9
2018-05-13T07:54:41.374Z,59.5
2018-05-13T07:55:43.007Z,59.4
2018-05-13T07:56:44.637Z,60.7
2018-05-13T07:57:46.263Z,62.1
2018-05-13T07:58:47.895Z,61.6
2018-05-13T07:59:49.528Z,62.6
2018-05-13T08:00:51.154Z,62.4
2018-05-13T08:01:52.782Z,61.7
2018-05-13T08:02:54.412Z,61.8
2018-05-13T08:03:56.046Z,61.9
2018-05-13T08:04:57.670Z,62.3
2018-05-13T08:05:59.298Z,62.9
2018-05-13T08:07:00.931Z,63.1
2018-05-13T08:08:02.561Z,64.0
2018-05-13T08:09:04.185Z,63.8
2018-05-13T08:10:05.816Z,64.2
2018-05-13T08:11:07.450Z,64.4
2018-05-13T08:12:09.079Z,65.5
2018-05-13T08:13:10.702Z,64.5
2018-05-13T08:14:12.382Z,65.5
2018-05-13T08:15:13.983Z,64.6
2018-05-13T08:16:15.616Z,65.6
2018-05-13T08:17:17.257Z,65.8
2018-05-13T08:18:20.097Z,65.9
2018-05-13T08:19:21.729Z,64.1
2018-05-13T08:20:25.014Z,64.4
2018-05-13T08:21:26.598Z,64.0
2018-05-13T08:22:28.229Z,63.1
2018-05-13T08:23:29.854Z,62.4
2018-05-13T08:24:31.750Z,62.2
2018-05-13T08:25:33.389Z,62.2
2018-05-13T08:26:35.282Z,62.8
2018-05-13T08:27:36.901Z,62.0
2018-05-13T08:28:38.531Z,61.4
2018-05-13T08:29:40.174Z,59.8
2018-05-13T08:30:41.806Z,59.5
2018-05-13T08:31:43.443Z,58.4
2018-05-13T08:32:45.075Z,58.9
2018-05-13T08:33:46.703Z,59.3
2018-05-13T08:34:48.335Z,58.9
2018-05-13T08:35:49.961Z,59.3
2018-05-13T08:36:51.597Z,56.2
2018-05-13T08:37:53.225Z,54.7
2018-05-13T08:38:54.856Z,53.6
2018-05-13T08:39:56.493Z,53.4
2018-05-13T08:40:58.118Z,53.1
2018-05-13T08:41:59.770Z,53.2
2018-05-13T08:43:01.388Z,54.1
2018-05-13T08:44:03.019Z,53.1
2018-05-13T08:45:04.652Z,52.9
2018-05-13T08:46:06.284Z,52.3
2018-05-13T08:47:07.920Z,50.9
2018-05-13T08:48:09.552Z,50.9
2018-05-13T08:49:11.188Z,52.2
2018-05-13T08:50:12.820Z,52.8
2018-05-13T08:51:14.448Z,52.5
2018-05-13T08:52:16.082Z,52.5
2018-05-13T08:53:17.716Z,53.1
2018-05-13T08:54:19.355Z,54.6
2018-05-13T08:55:20.988Z,55.7
2018-05-13T08:56:22.619Z,56.7
2018-05-13T08:57:24.254Z,55.9
2018-05-13T08:58:25.886Z,57.8
2018-05-13T08:59:27.518Z,57.2
2018-05-13T09:00:29.155Z,57.8
2018-05-13T09:01:30.785Z,58.4
2018-05-13T09:02:32.418Z,60.4
2018-05-13T09:03:34.047Z,59.6
2018-05-13T09:04:35.679Z,61.0
2018-05-13T09:05:37.313Z,62.2
2018-05-13T09:06:38.941Z,62.4
2018-05-13T09:07:40.574Z,62.0
2018-05-13T09:08:42.202Z,62.3
2018-05-13T09:09:43.827Z,62.9
2018-05-13T09:10:45.462Z,63.3
2018-05-13T09:11:47.109Z,64.6
2018-05-13T09:12:48.718Z,64.3
2018-05-13T09:13:50.353Z,64.8
2018-05-13T09:14:51.977Z,64.2
2018-05-13T09:15:53.631Z,64.9
2018-05-13T09:16:55.260Z,65.2
2018-05-13T09:17:56.886Z,65.7
2018-05-13T09:18:58.515Z,66.0
2018-05-13T09:20:00.146Z,65.8
2018-05-13T09:21:01.777Z,65.7
2018-05-13T09:22:03.417Z,66.1
2018-05-13T09:23:05.120Z,66.6
2018-05-13T09:24:06.667Z,66.9
2018-05-13T09:25:08.299Z,66.9
2018-05-13T09:26:09.928Z,67.0
2018-05-13T09:27:11.551Z,67.2
2018-05-13T09:28:13.183Z,67.8
2018-05-13T09:29:14.813Z,68.1
2018-05-13T09:30:16.445Z,68.7
2018-05-13T09:31:18.068Z,68.4
2018-05-13T09:32:19.699Z,68.7
2018-05-13T09:33:21.326Z,68.8
2018-05-13T09:34:22.960Z,68.6
2018-05-13T09:35:24.584Z,67.3
2018-05-13T09:36:26.214Z,67.2
2018-05-13T09:37:27.841Z,66.0
2018-05-13T09:38:29.469Z,66.1
2018-05-13T09:39:31.098Z,65.6
2018-05-13T09:40:32.730Z,65.7
2018-05-13T09:41:34.360Z,64.8
2018-05-13T09:42:35.985Z,64.2
2018-05-13T09:43:37.623Z,62.9
2018-05-13T09:44:39.250Z,62.0
2018-05-13T09:45:40.883Z,62.3
2018-05-13T09:46:42.512Z,60.7
2018-05-13T09:47:44.147Z,60.0
2018-05-13T09:48:45.775Z,59.8
2018-05-13T09:49:47.411Z,58.3
2018-05-13T09:50:49.044Z,57.8
2018-05-13T09:51:50.680Z,56.9
2018-05-13T09:52:52.309Z,54.9
2018-05-13T09:53:53.945Z,55.8
2018-05-13T09:54:55.576Z,55.1
2018-05-13T09:55:57.211Z,55.8
2018-05-13T09:56:58.849Z,55.1
2018-05-13T09:58:00.491Z,55.8
2018-05-13T09:59:02.199Z,55.2
2018-05-13T10:00:03.758Z,56.3
2018-05-13T10:01:05.393Z,55.7
2018-05-13T10:02:07.021Z,55.1
2018-05-13T10:03:08.661Z,55.9
2018-05-13T10:04:10.382Z,56.6
2018-05-13T10:05:11.926Z,57.0
2018-05-13T10:06:13.566Z,55.7
2018-05-13T10:07:15.204Z,55.5
2018-05-13T10:08:16.837Z,56.5
2018-05-13T10:09:18.470Z,56.2
2018-05-13T10:10:20.105Z,56.5
2018-05-13T10:11:21.740Z,57.0
2018-05-13T10:12:23.377Z,56.5
2018-05-13T10:13:25.015Z,57.0
2018-05-13T10:14:26.644Z,57.2
2018-05-13T10:15:28.274Z,57.4
2018-05-13T10:16:29.959Z,56.9
2018-05-13T10:17:31.548Z,56.9
2018-05-13T10:18:33.182Z,57.7
2018-05-13T10:19:34.853Z,57.9
2018-05-13T10:20:36.449Z,58.8
2018-05-13T10:21:38.077Z,59.0
2018-05-13T10:22:39.720Z,58.6
2018-05-13T10:23:41.346Z,60.0
2018-05-13T10:24:42.977Z,60.0
2018-05-13T10:25:44.607Z,60.6
2018-05-13T10:26:46.239Z,60.8
2018-05-13T10:27:47.872Z,61.1
2018-05-13T10:28:49.500Z,61.7
2018-05-13T10:29:51.137Z,62.6
2018-05-13T10:30:52.762Z,62.1
2018-05-13T10:31:54.401Z,62.8
2018-05-13T10:32:56.029Z,62.0
2018-05-13T10:33:57.665Z,61.9
2018-05-13T10:34:59.296Z,62.3
2018-05-13T10:36:00.926Z,61.7
2018-05-13T10:37:02.555Z,61.4
2018-05-13T10:38:04.187Z,61.6
2018-05-13T10:39:05.816Z,61.9
2018-05-13T10:40:07.463Z,62.2
2018-05-13T10:41:09.080Z,62.3
2018-05-13T10:42:10.721Z,62.2
2018-05-13T10:43:12.350Z,62.6
2018-05-13T10:44:13.974Z,62.8
2018-05-13T10:45:15.605Z,63.1
2018-05-13T10:46:17.235Z,62.1
2018-05-13T10:47:18.874Z,62.8
2018-05-13T10:48:20.500Z,62.2
2018-05-13T10:49:22.138Z,62.0
2018-05-13T10:50:23.763Z,62.5
2018-05-13T10:51:25.399Z,62.9
2018-05-13T10:52:27.034Z,62.8
2018-05-13T10:53:28.660Z,63.3
2018-05-13T10:54:30.297Z,64.4
2018-05-13T10:55:31.925Z,64.5
2018-05-13T10:56:33.554Z,65.3
2018-05-13T10:57:35.186Z,65.8
2018-05-13T10:58:36.815Z,66.3
2018-05-13T10:59:38.438Z,66.3
2018-05-13T11:00:40.069Z,66.7
2018-05-13T11:01:41.700Z,67.2
2018-05-13T11:02:43.333Z,67.5
2018-05-13T11:03:44.968Z,68.1
2018-05-13T11:04:46.671Z,69.6
2018-05-13T11:05:48.220Z,69.4
2018-05-13T11:06:49.847Z,69.8
2018-05-13T11:07:51.472Z,70.6
2018-05-13T11:08:53.097Z,71.5
2018-05-13T11:09:54.731Z,72.3
2018-05-13T11:10:56.359Z,72.4
2018-05-13T11:11:57.983Z,72.7
2018-05-13T11:12:59.614Z,73.3
2018-05-13T11:14:01.241Z,74.4
2018-05-13T11:15:02.867Z,75.1
2018-05-13T11:16:04.492Z,75.6
2018-05-13T11:17:06.117Z,75.9
2018-05-13T11:18:07.748Z,77.0
2018-05-13T11:19:09.373Z,78.6
2018-05-13T11:20:11.008Z,79.3
2018-05-13T11:21:12.616Z,79.6
2018-05-13T11:22:14.244Z,80.1
2018-05-13T14:06:36.665Z,100.0
2018-05-13T14:07:38.287Z,100.0
2018-05-13T14:09:30.005Z,100.0
2018-05-13T14:10:31.624Z,100.0
2018-05-13T14:12:23.325Z,100.0
2018-05-13T14:13:24.947Z,100.0
2018-05-13T14:15:16.665Z,100.0
2018-05-13T14:16:18.286Z,100.0
2018-05-13T14:18:09.984Z,100.0
2018-05-13T14:19:11.597Z,100.0
2018-05-13T14:21:03.314Z,100.0
2018-05-13T14:22:04.933Z,100.0
2018-05-13T14:23:56.656Z,100.0
2018-05-13T14:24:58.221Z,100.0
2018-05-13T14:26:49.947Z,100.0
2018-05-13T14:27:51.570Z,100.0
2018-05-13T14:29:43.276Z,100.0
2018-05-13T14:30:44.904Z,100.0
2018-05-13T14:32:36.619Z,100.0
2018-05-13T14:33:38.243Z,100.0
2018-05-13T14:35:29.945Z,100.0
2018-05-13T14:36:31.561Z,100.0
2018-05-13T14:38:23.290Z,100.0
2018-05-13T14:39:24.915Z,100.0
2018-05-13T14:41:16.706Z,100.0
2018-05-13T14:42:18.249Z,100.0
2018-05-13T14:44:09.981Z,100.0
2018-05-13T14:45:11.669Z,100.0
2018-05-13T14:47:03.396Z,100.0
2018-05-13T14:48:05.014Z,100.0
2018-05-13T14:49:56.741Z,100.0
2018-05-13T14:50:58.364Z,100.0
2018-05-13T14:52:50.063Z,100.0
2018-05-13T14:53:51.685Z,100.0
2018-05-13T14:55:43.417Z,100.0
2018-05-13T14:56:45.038Z,100.0
2018-05-13T14:58:36.741Z,100.0
2018-05-13T14:59:38.378Z,100.0
2018-05-13T15:01:30.095Z,100.0
2018-05-13T15:02:31.712Z,100.0
2018-05-13T15:04:23.417Z,100.0
2018-05-13T15:05:25.036Z,100.0
2018-05-13T15:07:16.770Z,100.0
2018-05-13T15:08:18.408Z,100.0
2018-05-13T15:10:10.178Z,100.0
2018-05-13T15:11:11.802Z,100.0
2018-05-13T15:13:03.527Z,100.0
2018-05-13T15:14:05.151Z,100.0
2018-05-13T15:15:56.855Z,100.0
2018-05-13T15:16:58.476Z,100.0
2018-05-13T15:18:50.209Z,100.0
2018-05-13T15:19:51.828Z,100.0
2018-05-13T15:21:43.526Z,100.0
2018-05-13T15:22:45.153Z,100.0
2018-05-13T15:24:36.878Z,100.0
2018-05-13T15:25:38.505Z,100.0
2018-05-13T15:27:30.201Z,100.0
2018-05-13T15:28:31.829Z,100.0
2018-05-13T15:30:23.540Z,100.0
2018-05-13T15:31:25.162Z,100.0
2018-05-13T15:33:16.865Z,100.0
2018-05-13T15:34:18.484Z,100.0
2018-05-13T15:36:10.207Z,100.0
2018-05-13T15:37:11.870Z,100.0
2018-05-13T15:39:03.538Z,100.0
2018-05-13T15:40:05.150Z,100.0
2018-05-13T15:41:56.971Z,100.0
2018-05-13T15:42:58.671Z,100.0
2018-05-13T15:44:50.284Z,100.0
2018-05-13T15:45:51.903Z,100.0
2018-05-13T15:47:44.480Z,100.0
2018-05-13T15:48:46.106Z,100.0
2018-05-13T15:50:37.803Z,100.0
2018-05-13T15:51:39.421Z,100.0
2018-05-13T15:53:31.147Z,100.0
2018-05-13T15:54:32.778Z,100.0
2018-05-13T15:56:24.482Z,100.0
2018-05-13T15:57:26.103Z,100.0
2018-05-13T15:59:17.819Z,100.0
2018-05-13T16:00:19.441Z,100.0
2018-05-13T16:02:11.990Z,100.0
2018-05-13T16:03:13.616Z,100.0
2018-05-13T16:05:05.336Z,100.0
2018-05-13T16:06:06.954Z,100.0
2018-05-13T16:07:58.656Z,100.0
2018-05-13T16:09:00.279Z,100.0
2018-05-13T16:10:51.991Z,100.0
2018-05-13T16:11:53.615Z,100.0
2018-05-13T16:13:45.310Z,100.0
2018-05-13T16:14:46.939Z,100.0
2018-05-13T16:16:38.654Z,100.0
2018-05-13T16:17:40.271Z,100.0
2018-05-13T16:19:31.974Z,100.0
2018-05-13T16:20:33.590Z,100.0
2018-05-13T16:22:25.311Z,100.0
2018-05-13T16:23:26.939Z,100.0
2018-05-13T16:25:18.644Z,100.0
2018-05-13T16:26:20.265Z,100.0
2018-05-13T16:28:11.984Z,100.0
2018-05-13T16:29:13.602Z,100.0
2018-05-13T16:31:05.316Z,100.0
2018-05-13T16:32:06.936Z,100.0
2018-05-13T16:33:58.653Z,100.0
2018-05-13T16:35:00.276Z,100.0
2018-05-13T16:36:51.976Z,100.0
2018-05-13T16:37:53.601Z,100.0
2018-05-13T16:39:45.329Z,100.0
2018-05-13T16:40:46.945Z,100.0
2018-05-13T16:42:38.648Z,100.0
2018-05-13T16:43:40.276Z,100.0
2018-05-13T16:45:31.998Z,100.0
2018-05-13T16:46:33.624Z,100.0
2018-05-13T16:48:25.327Z,100.0
2018-05-13T16:49:26.950Z,100.0
2018-05-13T16:51:18.673Z,100.0
2018-05-13T16:52:20.290Z,100.0
2018-05-13T16:54:11.995Z,100.0
2018-05-13T16:55:13.616Z,100.0
2018-05-13T16:57:05.345Z,100.0
2018-05-13T16:58:06.967Z,100.0
2018-05-13T16:59:58.667Z,100.0
2018-05-13T17:01:00.287Z,100.0
2018-05-13T17:02:52.036Z,100.0
2018-05-13T17:03:53.653Z,100.0
2018-05-13T17:05:45.364Z,100.0
2018-05-13T17:06:46.984Z,100.0